sensor_id;sensor_type;location;lat;lon;timestamp;pressure;altitude;pressure_sealevel;temperature;humidity
61742;BME280;47650;49.848;9.620;2022-08-21T00:00:41;99662.63;;;17.16;76.07
61742;BME280;47650;49.848;9.620;2022-08-21T00:03:09;99658.47;;;17.13;76.08
61742;BME280;47650;49.848;9.620;2022-08-21T00:05:44;99656.81;;;17.12;76.00
61742;BME280;47650;49.848;9.620;2022-08-21T00:08:10;99639.09;;;16.96;76.15
61742;BME280;47650;49.848;9.620;2022-08-21T00:10:37;99635.50;;;16.89;76.12
61742;BME280;47650;49.848;9.620;2022-08-21T00:13:04;99661.81;;;17.00;75.83
61742;BME280;47650;49.848;9.620;2022-08-21T00:15:33;99660.53;;;16.96;75.88
61742;BME280;47650;49.848;9.620;2022-08-21T00:18:00;99638.59;;;16.78;76.03
61742;BME280;47650;49.848;9.620;2022-08-21T00:20:25;99655.25;;;16.88;75.87
61742;BME280;47650;49.848;9.620;2022-08-21T00:22:51;99660.78;;;16.86;75.87
61742;BME280;47650;49.848;9.620;2022-08-21T00:25:18;99625.88;;;16.65;75.96
61742;BME280;47650;49.848;9.620;2022-08-21T00:27:45;99660.66;;;16.80;75.78
61742;BME280;47650;49.848;9.620;2022-08-21T00:30:14;99657.34;;;16.78;75.76
61742;BME280;47650;49.848;9.620;2022-08-21T00:32:40;99618.47;;;16.52;75.64
61742;BME280;47650;49.848;9.620;2022-08-21T00:35:09;99651.44;;;16.67;75.70
61742;BME280;47650;49.848;9.620;2022-08-21T00:37:37;99623.53;;;16.47;75.73
61742;BME280;47650;49.848;9.620;2022-08-21T00:40:05;99647.47;;;16.63;75.51
61742;BME280;47650;49.848;9.620;2022-08-21T00:42:33;99649.88;;;16.58;75.57
61742;BME280;47650;49.848;9.620;2022-08-21T00:44:58;99645.34;;;16.59;75.76
61742;BME280;47650;49.848;9.620;2022-08-21T00:47:24;99651.03;;;16.55;75.72
61742;BME280;47650;49.848;9.620;2022-08-21T00:49:50;99646.91;;;16.53;75.61
61742;BME280;47650;49.848;9.620;2022-08-21T00:52:20;99645.97;;;16.46;76.20
61742;BME280;47650;49.848;9.620;2022-08-21T00:54:49;99642.66;;;16.44;75.77
61742;BME280;47650;49.848;9.620;2022-08-21T00:57:21;99638.66;;;16.40;75.75
61742;BME280;47650;49.848;9.620;2022-08-21T00:59:51;99642.38;;;16.39;75.58
61742;BME280;47650;49.848;9.620;2022-08-21T01:02:21;99648.78;;;16.29;75.77
61742;BME280;47650;49.848;9.620;2022-08-21T01:04:49;99636.44;;;16.28;75.72
61742;BME280;47650;49.848;9.620;2022-08-21T01:07:15;99640.78;;;16.29;75.87
61742;BME280;47650;49.848;9.620;2022-08-21T01:09:44;99638.66;;;16.25;75.50
61742;BME280;47650;49.848;9.620;2022-08-21T01:12:11;99640.66;;;16.23;75.61
61742;BME280;47650;49.848;9.620;2022-08-21T01:14:38;99642.69;;;16.21;75.70
61742;BME280;47650;49.848;9.620;2022-08-21T01:17:04;99642.22;;;16.17;75.72
61742;BME280;47650;49.848;9.620;2022-08-21T01:19:32;99640.28;;;16.11;75.59
61742;BME280;47650;49.848;9.620;2022-08-21T01:21:58;99637.63;;;16.11;75.54
61742;BME280;47650;49.848;9.620;2022-08-21T01:24:24;99637.50;;;16.04;75.57
61742;BME280;47650;49.848;9.620;2022-08-21T01:26:50;99643.03;;;16.03;75.08
61742;BME280;47650;49.848;9.620;2022-08-21T01:29:38;99646.88;;;16.00;75.13
61742;BME280;47650;49.848;9.620;2022-08-21T01:32:07;99544.97;;;15.34;75.21
61742;BME280;47650;49.848;9.620;2022-08-21T01:34:36;99641.63;;;15.92;75.30
61742;BME280;47650;49.848;9.620;2022-08-21T01:37:03;99621.50;;;15.73;75.20
61742;BME280;47650;49.848;9.620;2022-08-21T01:39:29;99643.69;;;15.82;75.04
61742;BME280;47650;49.848;9.620;2022-08-21T01:41:54;99639.06;;;15.75;74.91
61742;BME280;47650;49.848;9.620;2022-08-21T01:44:23;99636.88;;;15.71;74.99
61742;BME280;47650;49.848;9.620;2022-08-21T01:46:50;99644.25;;;15.69;75.11
61742;BME280;47650;49.848;9.620;2022-08-21T01:49:15;99637.59;;;15.65;75.27
61742;BME280;47650;49.848;9.620;2022-08-21T01:51:43;99633.59;;;15.60;75.24
61742;BME280;47650;49.848;9.620;2022-08-21T01:54:09;99643.16;;;15.55;75.04
61742;BME280;47650;49.848;9.620;2022-08-21T01:56:40;99638.72;;;15.47;74.57
61742;BME280;47650;49.848;9.620;2022-08-21T01:59:08;99624.75;;;15.37;75.01
61742;BME280;47650;49.848;9.620;2022-08-21T02:01:34;99638.41;;;15.42;75.11
61742;BME280;47650;49.848;9.620;2022-08-21T02:03:59;99609.44;;;15.22;75.17
61742;BME280;47650;49.848;9.620;2022-08-21T02:06:25;99636.44;;;15.36;75.21
61742;BME280;47650;49.848;9.620;2022-08-21T02:12:12;99625.78;;;15.28;75.32
61742;BME280;47650;49.848;9.620;2022-08-21T02:14:39;99633.31;;;15.24;75.46
61742;BME280;47650;49.848;9.620;2022-08-21T02:17:06;99631.66;;;15.23;75.49
61742;BME280;47650;49.848;9.620;2022-08-21T02:19:31;99637.53;;;15.18;75.24
61742;BME280;47650;49.848;9.620;2022-08-21T02:21:56;99615.75;;;14.98;75.24
61742;BME280;47650;49.848;9.620;2022-08-21T02:24:22;99636.72;;;15.10;75.21
61742;BME280;47650;49.848;9.620;2022-08-21T02:26:47;99602.31;;;14.83;75.21
61742;BME280;47650;49.848;9.620;2022-08-21T02:29:13;99630.59;;;15.01;75.14
61742;BME280;47650;49.848;9.620;2022-08-21T02:31:38;99620.97;;;14.92;75.21
61742;BME280;47650;49.848;9.620;2022-08-21T02:34:04;99630.13;;;14.97;75.34
61742;BME280;47650;49.848;9.620;2022-08-21T02:36:33;99627.44;;;14.97;75.34
61742;BME280;47650;49.848;9.620;2022-08-21T02:39:03;99625.94;;;14.95;75.28
61742;BME280;47650;49.848;9.620;2022-08-21T02:41:28;99627.97;;;14.93;75.41
61742;BME280;47650;49.848;9.620;2022-08-21T02:43:54;99625.69;;;14.81;75.23
61742;BME280;47650;49.848;9.620;2022-08-21T02:46:20;99619.97;;;14.84;75.29
61742;BME280;47650;49.848;9.620;2022-08-21T02:48:46;99629.00;;;14.83;75.27
61742;BME280;47650;49.848;9.620;2022-08-21T02:51:15;99634.34;;;14.83;75.35
61742;BME280;47650;49.848;9.620;2022-08-21T02:53:43;99627.69;;;14.79;75.08
61742;BME280;47650;49.848;9.620;2022-08-21T02:56:12;99618.53;;;14.65;75.00
61742;BME280;47650;49.848;9.620;2022-08-21T02:58:43;99628.69;;;14.70;74.97
61742;BME280;47650;49.848;9.620;2022-08-21T03:01:09;99639.53;;;14.69;75.22
61742;BME280;47650;49.848;9.620;2022-08-21T03:03:37;99632.72;;;14.66;75.28
61742;BME280;47650;49.848;9.620;2022-08-21T03:06:04;99605.56;;;14.46;75.43
61742;BME280;47650;49.848;9.620;2022-08-21T03:08:31;99624.06;;;14.56;75.51
61742;BME280;47650;49.848;9.620;2022-08-21T03:10:57;99626.06;;;14.54;75.83
61742;BME280;47650;49.848;9.620;2022-08-21T03:13:26;99618.72;;;14.47;75.66
61742;BME280;47650;49.848;9.620;2022-08-21T03:15:56;99625.69;;;14.57;75.80
61742;BME280;47650;49.848;9.620;2022-08-21T03:18:23;99605.78;;;14.36;75.65
61742;BME280;47650;49.848;9.620;2022-08-21T03:20:48;99636.91;;;14.52;75.69
61742;BME280;47650;49.848;9.620;2022-08-21T03:23:16;99631.75;;;14.42;75.58
61742;BME280;47650;49.848;9.620;2022-08-21T03:25:44;99643.06;;;14.44;75.44
61742;BME280;47650;49.848;9.620;2022-08-21T03:28:15;99638.09;;;14.41;75.65
61742;BME280;47650;49.848;9.620;2022-08-21T03:30:44;99636.59;;;14.39;75.50
61742;BME280;47650;49.848;9.620;2022-08-21T03:33:10;99642.09;;;14.37;75.53
61742;BME280;47650;49.848;9.620;2022-08-21T03:35:38;99631.78;;;14.26;75.36
61742;BME280;47650;49.848;9.620;2022-08-21T03:38:03;99620.97;;;14.19;75.17
61742;BME280;47650;49.848;9.620;2022-08-21T03:40:28;99641.25;;;14.28;75.27
61742;BME280;47650;49.848;9.620;2022-08-21T03:42:54;99625.28;;;14.20;75.43
61742;BME280;47650;49.848;9.620;2022-08-21T03:45:20;99623.13;;;14.16;75.41
61742;BME280;47650;49.848;9.620;2022-08-21T03:48:01;99617.13;;;14.05;75.46
61742;BME280;47650;49.848;9.620;2022-08-21T03:50:31;99645.78;;;14.20;75.27
61742;BME280;47650;49.848;9.620;2022-08-21T03:52:58;99651.78;;;14.14;75.25
61742;BME280;47650;49.848;9.620;2022-08-21T03:55:25;99644.94;;;14.11;75.15
61742;BME280;47650;49.848;9.620;2022-08-21T03:57:51;99651.78;;;14.05;75.18
61742;BME280;47650;49.848;9.620;2022-08-21T04:00:17;99656.63;;;14.02;75.47
61742;BME280;47650;49.848;9.620;2022-08-21T04:02:44;99664.78;;;14.00;75.23
61742;BME280;47650;49.848;9.620;2022-08-21T04:05:13;99651.78;;;13.89;75.30
61742;BME280;47650;49.848;9.620;2022-08-21T04:07:57;99661.78;;;13.95;75.28
61742;BME280;47650;49.848;9.620;2022-08-21T04:10:26;99665.44;;;13.94;75.31
61742;BME280;47650;49.848;9.620;2022-08-21T04:12:54;99662.78;;;13.94;75.30
61742;BME280;47650;49.848;9.620;2022-08-21T04:15:23;99667.13;;;13.95;75.41
61742;BME280;47650;49.848;9.620;2022-08-21T04:17:49;99672.13;;;13.98;75.45
61742;BME280;47650;49.848;9.620;2022-08-21T04:20:16;99671.09;;;13.99;75.61
61742;BME280;47650;49.848;9.620;2022-08-21T04:22:41;99678.13;;;14.00;75.46
61742;BME280;47650;49.848;9.620;2022-08-21T04:25:07;99671.75;;;14.01;75.43
61742;BME280;47650;49.848;9.620;2022-08-21T04:27:34;99679.75;;;14.01;75.23
61742;BME280;47650;49.848;9.620;2022-08-21T04:29:59;99684.75;;;13.96;75.16
61742;BME280;47650;49.848;9.620;2022-08-21T04:32:26;99685.44;;;13.98;74.96
61742;BME280;47650;49.848;9.620;2022-08-21T04:34:58;99690.78;;;13.98;75.09
61742;BME280;47650;49.848;9.620;2022-08-21T04:37:26;99697.44;;;14.02;75.09
61742;BME280;47650;49.848;9.620;2022-08-21T04:39:53;99661.75;;;13.79;74.96
61742;BME280;47650;49.848;9.620;2022-08-21T04:42:23;99696.78;;;14.00;74.96
61742;BME280;47650;49.848;9.620;2022-08-21T04:44:50;99703.09;;;14.07;74.64
61742;BME280;47650;49.848;9.620;2022-08-21T04:47:15;99703.09;;;14.07;74.67
61742;BME280;47650;49.848;9.620;2022-08-21T04:49:42;99707.94;;;14.12;74.63
61742;BME280;47650;49.848;9.620;2022-08-21T04:52:08;99712.59;;;14.18;74.83
61742;BME280;47650;49.848;9.620;2022-08-21T04:54:34;99714.78;;;14.23;74.74
61742;BME280;47650;49.848;9.620;2022-08-21T04:57:02;99717.28;;;14.24;74.74
61742;BME280;47650;49.848;9.620;2022-08-21T04:59:36;99720.09;;;14.15;74.75
61742;BME280;47650;49.848;9.620;2022-08-21T05:02:04;99719.63;;;14.27;74.76
61742;BME280;47650;49.848;9.620;2022-08-21T05:04:32;99726.13;;;14.33;74.87
61742;BME280;47650;49.848;9.620;2022-08-21T05:07:02;99690.94;;;14.21;74.76
61742;BME280;47650;49.848;9.620;2022-08-21T05:09:31;99710.78;;;14.35;74.87
61742;BME280;47650;49.848;9.620;2022-08-21T05:12:01;99693.09;;;14.34;74.58
61742;BME280;47650;49.848;9.620;2022-08-21T05:14:27;99719.94;;;14.57;74.36
61742;BME280;47650;49.848;9.620;2022-08-21T05:16:52;99718.63;;;14.70;74.26
61742;BME280;47650;49.848;9.620;2022-08-21T05:19:20;99730.75;;;14.80;74.31
61742;BME280;47650;49.848;9.620;2022-08-21T05:21:46;99732.94;;;14.85;74.32
61742;BME280;47650;49.848;9.620;2022-08-21T05:24:13;99734.38;;;15.04;74.01
61742;BME280;47650;49.848;9.620;2022-08-21T05:26:39;99731.34;;;15.15;73.84
61742;BME280;47650;49.848;9.620;2022-08-21T05:29:05;99725.31;;;15.21;73.51
61742;BME280;47650;49.848;9.620;2022-08-21T05:31:32;99709.78;;;15.25;73.24
61742;BME280;47650;49.848;9.620;2022-08-21T05:33:58;99720.88;;;15.45;73.20
61742;BME280;47650;49.848;9.620;2022-08-21T05:36:24;99723.81;;;15.58;72.75
61742;BME280;47650;49.848;9.620;2022-08-21T05:38:51;99709.78;;;15.56;72.71
61742;BME280;47650;49.848;9.620;2022-08-21T05:41:17;99724.41;;;15.77;72.32
61742;BME280;47650;49.848;9.620;2022-08-21T05:43:42;99735.25;;;15.84;72.58
61742;BME280;47650;49.848;9.620;2022-08-21T05:46:09;99711.69;;;15.79;72.30
61742;BME280;47650;49.848;9.620;2022-08-21T05:48:35;99721.09;;;15.98;72.09
61742;BME280;47650;49.848;9.620;2022-08-21T05:51:06;99725.38;;;16.07;71.88
61742;BME280;47650;49.848;9.620;2022-08-21T05:53:32;99725.97;;;16.17;71.91
61742;BME280;47650;49.848;9.620;2022-08-21T05:55:57;99726.38;;;16.29;72.13
61742;BME280;47650;49.848;9.620;2022-08-21T05:58:24;99722.44;;;16.40;72.30
61742;BME280;47650;49.848;9.620;2022-08-21T06:00:50;99723.19;;;16.49;71.87
61742;BME280;47650;49.848;9.620;2022-08-21T06:03:20;99716.13;;;16.56;71.99
61742;BME280;47650;49.848;9.620;2022-08-21T06:05:45;99720.38;;;16.65;71.39
61742;BME280;47650;49.848;9.620;2022-08-21T06:08:14;99713.56;;;16.78;71.46
61742;BME280;47650;49.848;9.620;2022-08-21T06:10:39;99719.53;;;16.88;71.40
61742;BME280;47650;49.848;9.620;2022-08-21T06:13:06;99715.38;;;16.85;70.82
61742;BME280;47650;49.848;9.620;2022-08-21T06:15:32;99713.06;;;16.97;70.88
61742;BME280;47650;49.848;9.620;2022-08-21T06:17:58;99712.31;;;17.03;70.45
61742;BME280;47650;49.848;9.620;2022-08-21T06:20:23;99710.94;;;17.22;70.84
61742;BME280;47650;49.848;9.620;2022-08-21T06:22:49;99712.66;;;17.30;70.36
61742;BME280;47650;49.848;9.620;2022-08-21T06:25:15;99695.78;;;17.29;69.58
61742;BME280;47650;49.848;9.620;2022-08-21T06:27:42;99705.16;;;17.40;70.00
61742;BME280;47650;49.848;9.620;2022-08-21T06:30:09;99709.03;;;17.53;69.87
61742;BME280;47650;49.848;9.620;2022-08-21T06:32:35;99710.97;;;17.59;69.91
61742;BME280;47650;49.848;9.620;2022-08-21T06:35:07;99704.47;;;17.68;69.71
61742;BME280;47650;49.848;9.620;2022-08-21T06:37:35;99692.09;;;17.67;69.00
61742;BME280;47650;49.848;9.620;2022-08-21T06:40:04;99702.28;;;17.93;69.69
61742;BME280;47650;49.848;9.620;2022-08-21T06:42:29;99671.97;;;17.93;69.39
61742;BME280;47650;49.848;9.620;2022-08-21T06:44:56;99704.28;;;18.28;69.09
61742;BME280;47650;49.848;9.620;2022-08-21T06:47:25;99697.34;;;18.40;67.64
61742;BME280;47650;49.848;9.620;2022-08-21T06:49:50;99694.59;;;18.55;67.03
61742;BME280;47650;49.848;9.620;2022-08-21T06:52:19;99681.38;;;18.60;66.37
61742;BME280;47650;49.848;9.620;2022-08-21T06:54:44;99702.72;;;18.40;66.37
61742;BME280;47650;49.848;9.620;2022-08-21T06:57:09;99678.56;;;18.18;67.02
61742;BME280;47650;49.848;9.620;2022-08-21T06:59:35;99697.09;;;18.13;68.07
61742;BME280;47650;49.848;9.620;2022-08-21T07:02:00;99698.84;;;18.21;68.28
61742;BME280;47650;49.848;9.620;2022-08-21T07:04:26;99683.63;;;18.28;67.79
61742;BME280;47650;49.848;9.620;2022-08-21T07:06:52;99695.84;;;18.59;66.41
61742;BME280;47650;49.848;9.620;2022-08-21T07:09:17;99690.84;;;18.28;67.96
61742;BME280;47650;49.848;9.620;2022-08-21T07:11:52;99697.09;;;18.85;66.79
61742;BME280;47650;49.848;9.620;2022-08-21T07:14:18;99692.00;;;18.96;66.50
61742;BME280;47650;49.848;9.620;2022-08-21T07:16:44;99692.53;;;19.27;66.62
61742;BME280;47650;49.848;9.620;2022-08-21T07:19:10;99674.88;;;19.52;65.40
61742;BME280;47650;49.848;9.620;2022-08-21T07:21:36;99688.19;;;19.81;64.46
61742;BME280;47650;49.848;9.620;2022-08-21T07:24:03;99685.97;;;20.04;64.05
61742;BME280;47650;49.848;9.620;2022-08-21T07:26:28;99677.47;;;20.21;63.07
61742;BME280;47650;49.848;9.620;2022-08-21T07:28:54;99675.09;;;19.64;63.14
61742;BME280;47650;49.848;9.620;2022-08-21T07:31:23;99678.13;;;20.23;62.53
61742;BME280;47650;49.848;9.620;2022-08-21T07:33:49;99665.91;;;20.00;62.41
61742;BME280;47650;49.848;9.620;2022-08-21T07:36:15;99677.09;;;20.51;61.62
61742;BME280;47650;49.848;9.620;2022-08-21T07:38:40;99675.84;;;20.73;60.91
61742;BME280;47650;49.848;9.620;2022-08-21T07:41:14;99662.91;;;21.02;61.07
61742;BME280;47650;49.848;9.620;2022-08-21T07:43:40;99667.34;;;21.35;60.33
61742;BME280;47650;49.848;9.620;2022-08-21T07:46:12;99598.00;;;21.03;59.31
61742;BME280;47650;49.848;9.620;2022-08-21T07:48:38;99657.25;;;21.69;59.10
61742;BME280;47650;49.848;9.620;2022-08-21T07:51:08;99656.63;;;21.98;57.84
61742;BME280;47650;49.848;9.620;2022-08-21T07:53:40;99649.78;;;22.21;57.53
61742;BME280;47650;49.848;9.620;2022-08-21T07:56:07;99643.28;;;22.36;56.39
61742;BME280;47650;49.848;9.620;2022-08-21T07:58:33;99649.31;;;22.75;56.50
61742;BME280;47650;49.848;9.620;2022-08-21T08:01:06;99651.19;;;22.56;55.15
61742;BME280;47650;49.848;9.620;2022-08-21T08:03:39;99643.78;;;23.06;54.51
61742;BME280;47650;49.848;9.620;2022-08-21T08:06:04;99635.34;;;23.33;54.80
61742;BME280;47650;49.848;9.620;2022-08-21T08:08:30;99634.84;;;23.06;53.84
61742;BME280;47650;49.848;9.620;2022-08-21T08:10:57;99611.56;;;23.54;53.37
61742;BME280;47650;49.848;9.620;2022-08-21T08:13:23;99639.91;;;23.81;52.38
61742;BME280;47650;49.848;9.620;2022-08-21T08:15:50;99635.13;;;24.07;52.00
61742;BME280;47650;49.848;9.620;2022-08-21T08:18:24;99623.84;;;23.38;53.56
61742;BME280;47650;49.848;9.620;2022-08-21T08:20:51;99616.97;;;23.96;52.06
61742;BME280;47650;49.848;9.620;2022-08-21T08:23:17;99607.56;;;23.87;52.03
61742;BME280;47650;49.848;9.620;2022-08-21T08:25:42;99615.78;;;22.64;54.24
61742;BME280;47650;49.848;9.620;2022-08-21T08:28:08;99614.63;;;22.71;54.46
61742;BME280;47650;49.848;9.620;2022-08-21T08:30:34;99603.63;;;23.82;52.82
61742;BME280;47650;49.848;9.620;2022-08-21T08:33:00;99600.97;;;23.94;51.66
61742;BME280;47650;49.848;9.620;2022-08-21T08:35:26;99594.97;;;24.51;50.89
61742;BME280;47650;49.848;9.620;2022-08-21T08:37:52;99574.56;;;25.13;49.79
61742;BME280;47650;49.848;9.620;2022-08-21T08:40:42;99593.03;;;25.57;47.81
61742;BME280;47650;49.848;9.620;2022-08-21T08:43:10;99584.47;;;26.50;46.42
61742;BME280;47650;49.848;9.620;2022-08-21T08:45:39;99580.50;;;26.57;44.87
61742;BME280;47650;49.848;9.620;2022-08-21T08:48:08;99539.75;;;25.22;46.42
61742;BME280;47650;49.848;9.620;2022-08-21T08:50:55;99599.28;;;25.40;45.93
61742;BME280;47650;49.848;9.620;2022-08-21T08:53:25;99576.31;;;26.50;43.87
61742;BME280;47650;49.848;9.620;2022-08-21T08:55:53;99582.50;;;28.25;41.34
61742;BME280;47650;49.848;9.620;2022-08-21T08:58:24;99565.19;;;29.15;38.07
61742;BME280;47650;49.848;9.620;2022-08-21T09:00:53;99544.81;;;31.41;35.06
61742;BME280;47650;49.848;9.620;2022-08-21T09:03:22;99574.00;;;29.33;36.96
61742;BME280;47650;49.848;9.620;2022-08-21T09:05:55;99573.22;;;29.53;36.46
61742;BME280;47650;49.848;9.620;2022-08-21T09:11:29;99566.50;;;31.72;30.91
61742;BME280;47650;49.848;9.620;2022-08-21T09:14:32;99541.22;;;36.77;25.10
61742;BME280;47650;49.848;9.620;2022-08-21T09:17:15;99533.44;;;39.12;22.08
61742;BME280;47650;49.848;9.620;2022-08-21T09:20:03;99531.22;;;41.32;19.11
61742;BME280;47650;49.848;9.620;2022-08-21T09:25:45;99514.09;;;43.09;16.52
61742;BME280;47650;49.848;9.620;2022-08-21T09:28:14;99515.28;;;44.66;14.92
61742;BME280;47650;49.848;9.620;2022-08-21T09:30:41;99518.41;;;45.22;14.01
61742;BME280;47650;49.848;9.620;2022-08-21T09:33:07;99513.09;;;47.17;13.47
61742;BME280;47650;49.848;9.620;2022-08-21T09:35:34;99512.69;;;47.12;12.38
61742;BME280;47650;49.848;9.620;2022-08-21T09:38:05;99508.88;;;47.95;11.49
61742;BME280;47650;49.848;9.620;2022-08-21T09:45:34;99521.06;;;43.19;15.14
61742;BME280;47650;49.848;9.620;2022-08-21T09:48:20;99515.84;;;42.46;16.15
61742;BME280;47650;49.848;9.620;2022-08-21T09:50:47;99513.81;;;42.59;15.91
61742;BME280;47650;49.848;9.620;2022-08-21T09:53:27;99506.44;;;44.64;13.75
61742;BME280;47650;49.848;9.620;2022-08-21T09:56:14;99503.59;;;43.22;15.83
61742;BME280;47650;49.848;9.620;2022-08-21T09:58:59;99516.00;;;39.11;19.56
61742;BME280;47650;49.848;9.620;2022-08-21T10:01:25;99519.38;;;39.17;19.12
61742;BME280;47650;49.848;9.620;2022-08-21T10:04:04;99516.38;;;36.77;21.38
61742;BME280;47650;49.848;9.620;2022-08-21T10:06:29;99514.72;;;37.63;20.92
61742;BME280;47650;49.848;9.620;2022-08-21T10:09:10;99502.97;;;39.91;19.13
61742;BME280;47650;49.848;9.620;2022-08-21T10:11:36;99488.78;;;42.63;16.24
61742;BME280;47650;49.848;9.620;2022-08-21T10:14:18;99500.66;;;42.08;16.08
61742;BME280;47650;49.848;9.620;2022-08-21T10:17:17;99508.34;;;39.63;18.46
61742;BME280;47650;49.848;9.620;2022-08-21T10:20:17;99502.50;;;38.59;18.61
61742;BME280;47650;49.848;9.620;2022-08-21T10:25:44;99501.34;;;36.61;20.63
61742;BME280;47650;49.848;9.620;2022-08-21T10:28:34;99489.25;;;41.38;16.49
61742;BME280;47650;49.848;9.620;2022-08-21T10:31:26;99476.34;;;44.27;12.63
61742;BME280;47650;49.848;9.620;2022-08-21T10:36:37;99484.63;;;43.97;12.94
61742;BME280;47650;49.848;9.620;2022-08-21T10:39:19;99483.25;;;44.60;12.67
61742;BME280;47650;49.848;9.620;2022-08-21T10:42:29;99511.59;;;34.98;19.76
61742;BME280;47650;49.848;9.620;2022-08-21T10:45:15;99498.09;;;37.63;17.31
61742;BME280;47650;49.848;9.620;2022-08-21T10:47:48;99490.19;;;40.23;15.48
61742;BME280;47650;49.848;9.620;2022-08-21T10:50:39;99488.09;;;39.29;16.30
61742;BME280;47650;49.848;9.620;2022-08-21T10:53:27;99470.22;;;40.71;15.10
61742;BME280;47650;49.848;9.620;2022-08-21T10:55:59;99472.00;;;40.26;14.54
61742;BME280;47650;49.848;9.620;2022-08-21T10:58:35;99458.81;;;43.34;13.28
61742;BME280;47650;49.848;9.620;2022-08-21T11:01:11;99459.56;;;41.58;14.25
61742;BME280;47650;49.848;9.620;2022-08-21T11:03:44;99464.00;;;40.62;15.09
61742;BME280;47650;49.848;9.620;2022-08-21T11:06:18;99455.53;;;36.60;18.32
61742;BME280;47650;49.848;9.620;2022-08-21T11:08:50;99493.69;;;35.24;19.32
61742;BME280;47650;49.848;9.620;2022-08-21T11:11:32;99484.31;;;35.56;18.23
61742;BME280;47650;49.848;9.620;2022-08-21T11:14:20;99476.84;;;37.12;16.05
61742;BME280;47650;49.848;9.620;2022-08-21T11:16:56;99461.44;;;39.82;14.55
61742;BME280;47650;49.848;9.620;2022-08-21T11:20:07;99469.34;;;37.56;16.34
61742;BME280;47650;49.848;9.620;2022-08-21T11:22:41;99469.56;;;37.24;16.68
61742;BME280;47650;49.848;9.620;2022-08-21T11:25:19;99451.13;;;35.38;17.50
61742;BME280;47650;49.848;9.620;2022-08-21T11:28:17;99483.13;;;33.64;19.69
61742;BME280;47650;49.848;9.620;2022-08-21T11:31:15;99451.75;;;36.21;18.01
61742;BME280;47650;49.848;9.620;2022-08-21T11:33:57;99466.19;;;37.19;18.32
61742;BME280;47650;49.848;9.620;2022-08-21T11:36:40;99478.16;;;35.28;19.88
61742;BME280;47650;49.848;9.620;2022-08-21T11:39:22;99467.78;;;38.32;16.90
61742;BME280;47650;49.848;9.620;2022-08-21T11:44:49;99462.69;;;35.40;19.20
61742;BME280;47650;49.848;9.620;2022-08-21T11:50:14;99455.59;;;37.30;17.81
61742;BME280;47650;49.848;9.620;2022-08-21T11:52:44;99443.66;;;42.22;13.79
61742;BME280;47650;49.848;9.620;2022-08-21T11:55:18;99439.25;;;43.54;11.97
61742;BME280;47650;49.848;9.620;2022-08-21T11:57:54;99431.22;;;46.83;10.43
61742;BME280;47650;49.848;9.620;2022-08-21T12:00:25;99455.13;;;40.07;13.85
61742;BME280;47650;49.848;9.620;2022-08-21T12:02:55;99440.63;;;42.46;12.22
61742;BME280;47650;49.848;9.620;2022-08-21T12:05:43;99456.19;;;39.23;14.41
61742;BME280;47650;49.848;9.620;2022-08-21T12:08:15;99442.59;;;39.88;14.23
61742;BME280;47650;49.848;9.620;2022-08-21T12:14:14;99443.53;;;40.17;13.65
61742;BME280;47650;49.848;9.620;2022-08-21T12:16:42;99438.50;;;41.28;12.89
61742;BME280;47650;49.848;9.620;2022-08-21T12:26:57;99418.78;;;43.27;10.98
61742;BME280;47650;49.848;9.620;2022-08-21T12:29:28;99434.16;;;40.21;13.11
61742;BME280;47650;49.848;9.620;2022-08-21T12:32:01;99439.97;;;37.16;15.29
61742;BME280;47650;49.848;9.620;2022-08-21T12:34:38;99441.69;;;38.33;14.52
61742;BME280;47650;49.848;9.620;2022-08-21T12:37:14;99422.56;;;39.58;13.33
61742;BME280;47650;49.848;9.620;2022-08-21T12:39:52;99418.88;;;39.66;13.26
61742;BME280;47650;49.848;9.620;2022-08-21T12:42:31;99416.75;;;43.24;10.29
61742;BME280;47650;49.848;9.620;2022-08-21T12:45:02;99419.03;;;42.24;11.17
61742;BME280;47650;49.848;9.620;2022-08-21T12:51:13;99417.25;;;39.65;12.87
61742;BME280;47650;49.848;9.620;2022-08-21T12:54:00;99415.34;;;39.32;13.14
61742;BME280;47650;49.848;9.620;2022-08-21T12:56:33;99416.53;;;42.19;11.05
61742;BME280;47650;49.848;9.620;2022-08-21T12:59:10;99412.88;;;41.51;11.63
61742;BME280;47650;49.848;9.620;2022-08-21T13:01:53;99419.75;;;39.45;13.04
61742;BME280;47650;49.848;9.620;2022-08-21T13:04:22;99415.31;;;40.15;12.08
61742;BME280;47650;49.848;9.620;2022-08-21T13:06:53;99412.34;;;39.37;12.97
61742;BME280;47650;49.848;9.620;2022-08-21T13:09:24;99408.31;;;34.51;17.35
61742;BME280;47650;49.848;9.620;2022-08-21T13:11:50;99420.78;;;37.85;14.20
61742;BME280;47650;49.848;9.620;2022-08-21T13:14:30;99421.41;;;37.90;13.90
61742;BME280;47650;49.848;9.620;2022-08-21T13:16:58;99403.75;;;40.37;12.08
61742;BME280;47650;49.848;9.620;2022-08-21T13:19:25;99405.16;;;42.82;10.33
61742;BME280;47650;49.848;9.620;2022-08-21T13:21:51;99398.50;;;42.13;10.92
61742;BME280;47650;49.848;9.620;2022-08-21T13:24:23;99391.34;;;45.30;9.03
61742;BME280;47650;49.848;9.620;2022-08-21T13:26:50;99381.44;;;46.54;7.71
61742;BME280;47650;49.848;9.620;2022-08-21T13:29:19;99400.25;;;44.68;9.03
61742;BME280;47650;49.848;9.620;2022-08-21T13:31:53;99399.56;;;42.43;9.66
61742;BME280;47650;49.848;9.620;2022-08-21T13:34:21;99412.34;;;40.60;11.11
61742;BME280;47650;49.848;9.620;2022-08-21T13:36:47;99403.91;;;41.89;10.68
61742;BME280;47650;49.848;9.620;2022-08-21T13:39:16;99390.25;;;43.83;9.03
61742;BME280;47650;49.848;9.620;2022-08-21T13:41:44;99399.47;;;42.95;9.62
61742;BME280;47650;49.848;9.620;2022-08-21T13:44:22;99389.56;;;42.97;10.38
61742;BME280;47650;49.848;9.620;2022-08-21T13:46:52;99402.78;;;40.33;10.92
61742;BME280;47650;49.848;9.620;2022-08-21T13:49:26;99386.84;;;40.99;11.57
61742;BME280;47650;49.848;9.620;2022-08-21T13:51:54;99377.97;;;41.38;10.83
61742;BME280;47650;49.848;9.620;2022-08-21T13:54:34;99398.44;;;41.93;11.13
61742;BME280;47650;49.848;9.620;2022-08-21T13:57:01;99391.66;;;42.45;10.57